sensor_id;sensor_type;location;lat;lon;timestamp;temperature;humidity
12089;DHT22;6107;49.078;8.578;2024-01-07T00:00:19;5.10;99.90
12089;DHT22;6107;49.078;8.578;2024-01-07T00:02:45;5.10;99.90
12089;DHT22;6107;49.078;8.578;2024-01-07T00:05:10;5.10;99.90
12089;DHT22;6107;49.078;8.578;2024-01-07T00:07:36;5.10;99.90
12089;DHT22;6107;49.078;8.578;2024-01-07T00:10:02;5.10;99.90
12089;DHT22;6107;49.078;8.578;2024-01-07T00:12:28;5.20;99.90
12089;DHT22;6107;49.078;8.578;2024-01-07T00:14:53;5.20;99.90
12089;DHT22;6107;49.078;8.578;2024-01-07T00:17:19;5.10;99.90
12089;DHT22;6107;49.078;8.578;2024-01-07T00:19:45;5.20;99.90
12089;DHT22;6107;49.078;8.578;2024-01-07T00:22:10;5.20;99.90
12089;DHT22;6107;49.078;8.578;2024-01-07T00:24:36;5.10;99.90
12089;DHT22;6107;49.078;8.578;2024-01-07T00:27:03;5.00;99.90
12089;DHT22;6107;49.078;8.578;2024-01-07T00:29:28;5.00;99.90
12089;DHT22;6107;49.078;8.578;2024-01-07T00:31:54;5.00;99.90
12089;DHT22;6107;49.078;8.578;2024-01-07T00:34:19;5.10;99.90
12089;DHT22;6107;49.078;8.578;2024-01-07T00:36:45;5.10;99.90
12089;DHT22;6107;49.078;8.578;2024-01-07T00:39:11;4.90;99.90
12089;DHT22;6107;49.078;8.578;2024-01-07T00:41:37;5.00;99.90
12089;DHT22;6107;49.078;8.578;2024-01-07T00:44:02;5.00;99.90
12089;DHT22;6107;49.078;8.578;2024-01-07T00:46:28;5.10;99.90
12089;DHT22;6107;49.078;8.578;2024-01-07T00:48:53;5.20;99.90
12089;DHT22;6107;49.078;8.578;2024-01-07T00:51:19;5.00;99.90
12089;DHT22;6107;49.078;8.578;2024-01-07T00:53:45;5.10;99.90
12089;DHT22;6107;49.078;8.578;2024-01-07T00:56:10;5.00;99.90
12089;DHT22;6107;49.078;8.578;2024-01-07T00:58:36;5.00;99.90
12089;DHT22;6107;49.078;8.578;2024-01-07T01:01:02;4.90;99.90
12089;DHT22;6107;49.078;8.578;2024-01-07T01:03:27;4.90;99.90
12089;DHT22;6107;49.078;8.578;2024-01-07T01:05:53;4.90;99.90
12089;DHT22;6107;49.078;8.578;2024-01-07T01:08:19;5.00;99.90
12089;DHT22;6107;49.078;8.578;2024-01-07T01:10:44;4.90;99.90
12089;DHT22;6107;49.078;8.578;2024-01-07T01:13:10;5.10;99.90
12089;DHT22;6107;49.078;8.578;2024-01-07T01:15:35;5.20;99.90
12089;DHT22;6107;49.078;8.578;2024-01-07T01:18:01;5.10;99.90
12089;DHT22;6107;49.078;8.578;2024-01-07T01:20:27;5.20;99.90
12089;DHT22;6107;49.078;8.578;2024-01-07T01:22:52;5.00;99.90
12089;DHT22;6107;49.078;8.578;2024-01-07T01:25:18;5.10;99.90
12089;DHT22;6107;49.078;8.578;2024-01-07T01:27:43;5.10;99.90
12089;DHT22;6107;49.078;8.578;2024-01-07T01:30:11;5.00;99.90
12089;DHT22;6107;49.078;8.578;2024-01-07T01:32:36;5.00;99.90
12089;DHT22;6107;49.078;8.578;2024-01-07T01:35:02;4.90;99.90
12089;DHT22;6107;49.078;8.578;2024-01-07T01:37:27;5.00;99.90
12089;DHT22;6107;49.078;8.578;2024-01-07T01:39:53;5.10;99.90
12089;DHT22;6107;49.078;8.578;2024-01-07T01:42:19;4.90;99.90
12089;DHT22;6107;49.078;8.578;2024-01-07T01:44:46;5.00;99.90
12089;DHT22;6107;49.078;8.578;2024-01-07T01:47:12;4.90;99.90
12089;DHT22;6107;49.078;8.578;2024-01-07T01:49:37;4.90;99.90
12089;DHT22;6107;49.078;8.578;2024-01-07T01:52:04;5.00;99.90
12089;DHT22;6107;49.078;8.578;2024-01-07T01:54:30;5.20;99.90
12089;DHT22;6107;49.078;8.578;2024-01-07T01:56:55;5.20;99.90
12089;DHT22;6107;49.078;8.578;2024-01-07T01:59:22;5.00;99.90
12089;DHT22;6107;49.078;8.578;2024-01-07T02:01:47;4.90;99.90
12089;DHT22;6107;49.078;8.578;2024-01-07T02:04:14;5.00;99.90
12089;DHT22;6107;49.078;8.578;2024-01-07T02:06:40;4.90;99.90
12089;DHT22;6107;49.078;8.578;2024-01-07T02:09:06;4.90;99.90
12089;DHT22;6107;49.078;8.578;2024-01-07T02:11:32;4.90;99.90
12089;DHT22;6107;49.078;8.578;2024-01-07T02:13:57;4.80;99.90
12089;DHT22;6107;49.078;8.578;2024-01-07T02:16:23;4.90;99.90
12089;DHT22;6107;49.078;8.578;2024-01-07T02:18:49;5.00;99.90
12089;DHT22;6107;49.078;8.578;2024-01-07T02:21:15;4.90;99.90
12089;DHT22;6107;49.078;8.578;2024-01-07T02:23:41;4.90;99.90
12089;DHT22;6107;49.078;8.578;2024-01-07T02:26:06;4.80;99.90
12089;DHT22;6107;49.078;8.578;2024-01-07T02:28:33;4.80;99.90
12089;DHT22;6107;49.078;8.578;2024-01-07T02:30:59;4.80;99.90
12089;DHT22;6107;49.078;8.578;2024-01-07T02:33:25;4.80;99.90
12089;DHT22;6107;49.078;8.578;2024-01-07T02:35:50;4.90;99.90
12089;DHT22;6107;49.078;8.578;2024-01-07T02:38:16;5.00;99.90
12089;DHT22;6107;49.078;8.578;2024-01-07T02:40:42;5.00;99.90
12089;DHT22;6107;49.078;8.578;2024-01-07T02:43:08;4.70;99.90
12089;DHT22;6107;49.078;8.578;2024-01-07T02:45:33;4.90;99.90
12089;DHT22;6107;49.078;8.578;2024-01-07T02:47:59;4.90;99.90
12089;DHT22;6107;49.078;8.578;2024-01-07T02:50:25;5.00;99.90
12089;DHT22;6107;49.078;8.578;2024-01-07T02:52:50;4.90;99.90
12089;DHT22;6107;49.078;8.578;2024-01-07T02:55:16;4.90;99.90
12089;DHT22;6107;49.078;8.578;2024-01-07T02:57:42;4.80;99.90
12089;DHT22;6107;49.078;8.578;2024-01-07T03:00:07;4.90;99.90
12089;DHT22;6107;49.078;8.578;2024-01-07T03:02:33;4.90;99.90
12089;DHT22;6107;49.078;8.578;2024-01-07T03:04:59;4.90;99.90
12089;DHT22;6107;49.078;8.578;2024-01-07T03:07:25;5.00;99.90
12089;DHT22;6107;49.078;8.578;2024-01-07T03:09:50;4.90;99.90
12089;DHT22;6107;49.078;8.578;2024-01-07T03:12:16;4.80;99.90
12089;DHT22;6107;49.078;8.578;2024-01-07T03:14:42;4.80;99.90
12089;DHT22;6107;49.078;8.578;2024-01-07T03:17:09;4.90;99.90
12089;DHT22;6107;49.078;8.578;2024-01-07T03:19:34;4.80;99.90
12089;DHT22;6107;49.078;8.578;2024-01-07T03:22:00;4.80;99.90
12089;DHT22;6107;49.078;8.578;2024-01-07T03:24:25;4.90;99.90
12089;DHT22;6107;49.078;8.578;2024-01-07T03:26:51;4.90;99.90
12089;DHT22;6107;49.078;8.578;2024-01-07T03:29:17;5.00;99.90
12089;DHT22;6107;49.078;8.578;2024-01-07T03:31:42;5.00;99.90
12089;DHT22;6107;49.078;8.578;2024-01-07T03:34:08;5.20;99.90
12089;DHT22;6107;49.078;8.578;2024-01-07T03:36:33;5.20;99.90
12089;DHT22;6107;49.078;8.578;2024-01-07T03:38:59;5.00;99.90
12089;DHT22;6107;49.078;8.578;2024-01-07T03:41:25;5.00;99.90
12089;DHT22;6107;49.078;8.578;2024-01-07T03:43:51;5.10;99.90
12089;DHT22;6107;49.078;8.578;2024-01-07T03:46:18;4.90;99.90
12089;DHT22;6107;49.078;8.578;2024-01-07T03:48:43;4.90;99.90
12089;DHT22;6107;49.078;8.578;2024-01-07T03:51:09;4.80;99.90
12089;DHT22;6107;49.078;8.578;2024-01-07T03:53:35;4.80;99.90
12089;DHT22;6107;49.078;8.578;2024-01-07T03:56:00;4.90;99.90
12089;DHT22;6107;49.078;8.578;2024-01-07T03:58:26;4.80;99.90
12089;DHT22;6107;49.078;8.578;2024-01-07T04:00:52;4.80;99.90
12089;DHT22;6107;49.078;8.578;2024-01-07T04:03:17;4.70;99.90
12089;DHT22;6107;49.078;8.578;2024-01-07T04:05:43;4.90;99.90
12089;DHT22;6107;49.078;8.578;2024-01-07T04:08:11;4.80;99.90
12089;DHT22;6107;49.078;8.578;2024-01-07T04:10:37;4.70;99.90
12089;DHT22;6107;49.078;8.578;2024-01-07T04:13:04;4.80;99.90
12089;DHT22;6107;49.078;8.578;2024-01-07T04:15:30;4.80;99.90
12089;DHT22;6107;49.078;8.578;2024-01-07T04:17:55;4.80;99.90
12089;DHT22;6107;49.078;8.578;2024-01-07T04:20:21;4.80;99.90
12089;DHT22;6107;49.078;8.578;2024-01-07T04:22:47;4.80;99.90
12089;DHT22;6107;49.078;8.578;2024-01-07T04:25:13;4.80;99.90
12089;DHT22;6107;49.078;8.578;2024-01-07T04:27:38;4.70;99.90
12089;DHT22;6107;49.078;8.578;2024-01-07T04:30:05;4.70;99.90
12089;DHT22;6107;49.078;8.578;2024-01-07T04:32:31;4.70;99.90
12089;DHT22;6107;49.078;8.578;2024-01-07T04:34:57;4.60;99.90
12089;DHT22;6107;49.078;8.578;2024-01-07T04:37:23;4.60;99.90
12089;DHT22;6107;49.078;8.578;2024-01-07T04:39:49;4.70;99.90
12089;DHT22;6107;49.078;8.578;2024-01-07T04:42:16;4.70;99.90
12089;DHT22;6107;49.078;8.578;2024-01-07T04:44:42;4.70;99.90
12089;DHT22;6107;49.078;8.578;2024-01-07T04:47:30;4.70;99.90
12089;DHT22;6107;49.078;8.578;2024-01-07T04:49:57;4.70;99.90
12089;DHT22;6107;49.078;8.578;2024-01-07T04:52:24;4.80;99.90
12089;DHT22;6107;49.078;8.578;2024-01-07T04:54:54;4.80;99.90
12089;DHT22;6107;49.078;8.578;2024-01-07T04:57:19;4.80;99.90
12089;DHT22;6107;49.078;8.578;2024-01-07T04:59:46;4.70;99.90
12089;DHT22;6107;49.078;8.578;2024-01-07T05:02:12;4.80;99.90
12089;DHT22;6107;49.078;8.578;2024-01-07T05:04:37;4.80;99.90
12089;DHT22;6107;49.078;8.578;2024-01-07T05:07:03;4.70;99.90
12089;DHT22;6107;49.078;8.578;2024-01-07T05:09:29;4.70;99.90
12089;DHT22;6107;49.078;8.578;2024-01-07T05:11:54;4.90;99.90
12089;DHT22;6107;49.078;8.578;2024-01-07T05:14:20;4.90;99.90
12089;DHT22;6107;49.078;8.578;2024-01-07T05:16:48;4.80;99.90
12089;DHT22;6107;49.078;8.578;2024-01-07T05:19:13;4.80;99.90
12089;DHT22;6107;49.078;8.578;2024-01-07T05:21:39;4.70;99.90
12089;DHT22;6107;49.078;8.578;2024-01-07T05:24:05;4.70;99.90
12089;DHT22;6107;49.078;8.578;2024-01-07T05:26:31;4.70;99.90
12089;DHT22;6107;49.078;8.578;2024-01-07T05:28:56;4.70;99.90
12089;DHT22;6107;49.078;8.578;2024-01-07T05:31:22;4.70;99.90
12089;DHT22;6107;49.078;8.578;2024-01-07T05:33:47;4.70;99.90
12089;DHT22;6107;49.078;8.578;2024-01-07T05:36:13;4.70;99.90
12089;DHT22;6107;49.078;8.578;2024-01-07T05:38:41;4.70;99.90
12089;DHT22;6107;49.078;8.578;2024-01-07T05:41:06;4.80;99.90
12089;DHT22;6107;49.078;8.578;2024-01-07T05:43:32;4.80;99.90
12089;DHT22;6107;49.078;8.578;2024-01-07T05:45:58;4.80;99.90
12089;DHT22;6107;49.078;8.578;2024-01-07T05:48:23;4.70;99.90
12089;DHT22;6107;49.078;8.578;2024-01-07T05:50:49;4.70;99.90
12089;DHT22;6107;49.078;8.578;2024-01-07T05:53:16;4.80;99.90
12089;DHT22;6107;49.078;8.578;2024-01-07T05:55:42;4.80;99.90
12089;DHT22;6107;49.078;8.578;2024-01-07T05:58:08;4.90;99.90
12089;DHT22;6107;49.078;8.578;2024-01-07T06:00:34;4.90;99.90
12089;DHT22;6107;49.078;8.578;2024-01-07T06:02:59;4.90;99.90
12089;DHT22;6107;49.078;8.578;2024-01-07T06:05:26;5.00;99.90
12089;DHT22;6107;49.078;8.578;2024-01-07T06:07:51;5.00;99.90
12089;DHT22;6107;49.078;8.578;2024-01-07T06:10:17;4.80;99.90
12089;DHT22;6107;49.078;8.578;2024-01-07T06:12:42;4.70;99.90
12089;DHT22;6107;49.078;8.578;2024-01-07T06:15:08;4.80;99.90
12089;DHT22;6107;49.078;8.578;2024-01-07T06:17:34;4.90;99.90
12089;DHT22;6107;49.078;8.578;2024-01-07T06:20:00;4.70;99.90
12089;DHT22;6107;49.078;8.578;2024-01-07T06:22:25;4.80;99.90
12089;DHT22;6107;49.078;8.578;2024-01-07T06:24:51;4.80;99.90
12089;DHT22;6107;49.078;8.578;2024-01-07T06:27:17;4.80;99.90
12089;DHT22;6107;49.078;8.578;2024-01-07T06:29:42;4.70;99.90
12089;DHT22;6107;49.078;8.578;2024-01-07T06:32:08;4.80;99.90
12089;DHT22;6107;49.078;8.578;2024-01-07T06:34:35;4.90;99.90
12089;DHT22;6107;49.078;8.578;2024-01-07T06:37:01;4.80;99.90
12089;DHT22;6107;49.078;8.578;2024-01-07T06:39:27;4.90;99.90
12089;DHT22;6107;49.078;8.578;2024-01-07T06:41:53;4.60;99.90
12089;DHT22;6107;49.078;8.578;2024-01-07T06:44:18;4.50;99.90
12089;DHT22;6107;49.078;8.578;2024-01-07T06:46:44;4.70;99.90
12089;DHT22;6107;49.078;8.578;2024-01-07T06:49:10;4.70;99.90
12089;DHT22;6107;49.078;8.578;2024-01-07T06:51:35;4.70;99.90
12089;DHT22;6107;49.078;8.578;2024-01-07T06:54:01;4.80;99.90
12089;DHT22;6107;49.078;8.578;2024-01-07T06:56:26;4.80;99.90
12089;DHT22;6107;49.078;8.578;2024-01-07T06:58:52;4.70;99.90
12089;DHT22;6107;49.078;8.578;2024-01-07T07:01:21;4.80;99.90
12089;DHT22;6107;49.078;8.578;2024-01-07T07:03:50;4.80;99.90
12089;DHT22;6107;49.078;8.578;2024-01-07T07:06:16;4.80;99.90
12089;DHT22;6107;49.078;8.578;2024-01-07T07:08:42;4.80;99.90
12089;DHT22;6107;49.078;8.578;2024-01-07T07:11:08;4.80;99.90
12089;DHT22;6107;49.078;8.578;2024-01-07T07:13:33;4.80;99.90
12089;DHT22;6107;49.078;8.578;2024-01-07T07:16:00;4.70;99.90
12089;DHT22;6107;49.078;8.578;2024-01-07T07:18:25;4.70;99.90
12089;DHT22;6107;49.078;8.578;2024-01-07T07:20:51;4.60;99.90
12089;DHT22;6107;49.078;8.578;2024-01-07T07:23:17;4.60;99.90
12089;DHT22;6107;49.078;8.578;2024-01-07T07:25:43;4.70;99.90
12089;DHT22;6107;49.078;8.578;2024-01-07T07:28:08;4.60;99.90
12089;DHT22;6107;49.078;8.578;2024-01-07T07:30:34;4.70;99.90
12089;DHT22;6107;49.078;8.578;2024-01-07T07:33:00;4.80;99.90
12089;DHT22;6107;49.078;8.578;2024-01-07T07:35:25;4.90;99.90
12089;DHT22;6107;49.078;8.578;2024-01-07T07:37:51;4.80;99.90
12089;DHT22;6107;49.078;8.578;2024-01-07T07:40:16;4.80;99.90
12089;DHT22;6107;49.078;8.578;2024-01-07T07:42:42;4.90;99.90
12089;DHT22;6107;49.078;8.578;2024-01-07T07:45:09;4.90;99.90
12089;DHT22;6107;49.078;8.578;2024-01-07T07:47:34;4.80;99.90
12089;DHT22;6107;49.078;8.578;2024-01-07T07:50:00;4.90;99.90
12089;DHT22;6107;49.078;8.578;2024-01-07T07:52:27;4.80;99.90
12089;DHT22;6107;49.078;8.578;2024-01-07T07:54:53;4.80;99.90
12089;DHT22;6107;49.078;8.578;2024-01-07T07:57:18;4.90;99.90
12089;DHT22;6107;49.078;8.578;2024-01-07T07:59:47;5.00;99.90
12089;DHT22;6107;49.078;8.578;2024-01-07T08:02:13;5.00;99.90
12089;DHT22;6107;49.078;8.578;2024-01-07T08:04:39;5.00;99.90
12089;DHT22;6107;49.078;8.578;2024-01-07T08:07:08;5.00;99.90
12089;DHT22;6107;49.078;8.578;2024-01-07T08:09:33;5.00;99.90
12089;DHT22;6107;49.078;8.578;2024-01-07T08:12:02;5.10;99.90
12089;DHT22;6107;49.078;8.578;2024-01-07T08:14:28;5.00;99.90
12089;DHT22;6107;49.078;8.578;2024-01-07T08:16:54;5.10;99.90
12089;DHT22;6107;49.078;8.578;2024-01-07T08:19:20;4.80;99.90
12089;DHT22;6107;49.078;8.578;2024-01-07T08:21:45;4.90;99.90
12089;DHT22;6107;49.078;8.578;2024-01-07T08:24:11;5.00;99.90
12089;DHT22;6107;49.078;8.578;2024-01-07T08:26:37;5.10;99.90
12089;DHT22;6107;49.078;8.578;2024-01-07T08:29:03;5.10;99.90
12089;DHT22;6107;49.078;8.578;2024-01-07T08:31:28;5.20;99.90
12089;DHT22;6107;49.078;8.578;2024-01-07T08:33:54;5.30;99.90
12089;DHT22;6107;49.078;8.578;2024-01-07T08:36:20;5.30;99.90
12089;DHT22;6107;49.078;8.578;2024-01-07T08:38:45;5.30;99.90
12089;DHT22;6107;49.078;8.578;2024-01-07T08:41:11;5.30;99.90
12089;DHT22;6107;49.078;8.578;2024-01-07T08:43:38;5.20;99.90
12089;DHT22;6107;49.078;8.578;2024-01-07T08:46:04;5.30;99.90
12089;DHT22;6107;49.078;8.578;2024-01-07T08:48:30;5.20;99.90
12089;DHT22;6107;49.078;8.578;2024-01-07T08:50:55;5.10;99.90
12089;DHT22;6107;49.078;8.578;2024-01-07T08:53:21;5.00;99.90
12089;DHT22;6107;49.078;8.578;2024-01-07T08:55:47;5.20;99.90
12089;DHT22;6107;49.078;8.578;2024-01-07T08:58:13;5.20;99.90
12089;DHT22;6107;49.078;8.578;2024-01-07T09:00:43;5.20;99.90
12089;DHT22;6107;49.078;8.578;2024-01-07T09:03:09;5.10;99.90
12089;DHT22;6107;49.078;8.578;2024-01-07T09:05:35;5.10;99.90
12089;DHT22;6107;49.078;8.578;2024-01-07T09:08:01;5.10;99.90
12089;DHT22;6107;49.078;8.578;2024-01-07T09:10:27;5.10;99.90
12089;DHT22;6107;49.078;8.578;2024-01-07T09:12:53;5.20;99.90
12089;DHT22;6107;49.078;8.578;2024-01-07T09:15:19;5.20;99.90
12089;DHT22;6107;49.078;8.578;2024-01-07T09:17:45;5.10;99.90
12089;DHT22;6107;49.078;8.578;2024-01-07T09:20:12;5.20;99.90
12089;DHT22;6107;49.078;8.578;2024-01-07T09:22:38;5.10;99.90
12089;DHT22;6107;49.078;8.578;2024-01-07T09:25:04;5.20;99.90
12089;DHT22;6107;49.078;8.578;2024-01-07T09:27:31;5.30;99.90
12089;DHT22;6107;49.078;8.578;2024-01-07T09:29:57;5.40;99.90
12089;DHT22;6107;49.078;8.578;2024-01-07T09:32:23;5.30;99.90
12089;DHT22;6107;49.078;8.578;2024-01-07T09:34:48;5.30;99.90
12089;DHT22;6107;49.078;8.578;2024-01-07T09:37:14;5.40;99.90
12089;DHT22;6107;49.078;8.578;2024-01-07T09:39:40;5.40;99.90
12089;DHT22;6107;49.078;8.578;2024-01-07T09:42:12;5.30;99.90
12089;DHT22;6107;49.078;8.578;2024-01-07T09:44:39;5.20;99.90
12089;DHT22;6107;49.078;8.578;2024-01-07T09:47:07;5.40;99.90
12089;DHT22;6107;49.078;8.578;2024-01-07T09:49:35;5.60;99.90
12089;DHT22;6107;49.078;8.578;2024-01-07T09:52:04;5.30;99.90
12089;DHT22;6107;49.078;8.578;2024-01-07T09:54:30;5.30;99.90
12089;DHT22;6107;49.078;8.578;2024-01-07T09:57:01;5.20;99.90
12089;DHT22;6107;49.078;8.578;2024-01-07T09:59:30;5.30;99.90
12089;DHT22;6107;49.078;8.578;2024-01-07T10:01:56;5.30;99.90
12089;DHT22;6107;49.078;8.578;2024-01-07T10:04:26;5.30;99.90
12089;DHT22;6107;49.078;8.578;2024-01-07T10:06:53;5.20;99.90
12089;DHT22;6107;49.078;8.578;2024-01-07T10:09:22;5.20;99.90
12089;DHT22;6107;49.078;8.578;2024-01-07T10:11:49;5.20;99.90
12089;DHT22;6107;49.078;8.578;2024-01-07T10:14:15;5.10;99.90
12089;DHT22;6107;49.078;8.578;2024-01-07T10:16:41;5.10;99.90
12089;DHT22;6107;49.078;8.578;2024-01-07T10:19:07;5.10;99.90
12089;DHT22;6107;49.078;8.578;2024-01-07T10:21:33;5.00;99.90
12089;DHT22;6107;49.078;8.578;2024-01-07T10:24:12;5.00;99.90
12089;DHT22;6107;49.078;8.578;2024-01-07T10:26:39;5.00;99.90
12089;DHT22;6107;49.078;8.578;2024-01-07T10:29:05;5.00;99.90
12089;DHT22;6107;49.078;8.578;2024-01-07T10:31:37;5.00;99.90
12089;DHT22;6107;49.078;8.578;2024-01-07T10:34:03;5.00;99.90
12089;DHT22;6107;49.078;8.578;2024-01-07T10:36:29;5.00;99.90
12089;DHT22;6107;49.078;8.578;2024-01-07T10:38:56;5.00;99.90
12089;DHT22;6107;49.078;8.578;2024-01-07T10:41:23;4.90;99.90
12089;DHT22;6107;49.078;8.578;2024-01-07T10:43:49;4.80;99.90
12089;DHT22;6107;49.078;8.578;2024-01-07T10:46:16;4.80;99.90
12089;DHT22;6107;49.078;8.578;2024-01-07T10:49:15;4.80;99.90
12089;DHT22;6107;49.078;8.578;2024-01-07T10:51:44;4.90;99.90
12089;DHT22;6107;49.078;8.578;2024-01-07T10:54:13;4.80;99.90
12089;DHT22;6107;49.078;8.578;2024-01-07T10:56:48;4.70;99.90
12089;DHT22;6107;49.078;8.578;2024-01-07T10:59:15;4.70;99.90
12089;DHT22;6107;49.078;8.578;2024-01-07T11:01:41;4.70;99.90
12089;DHT22;6107;49.078;8.578;2024-01-07T11:04:30;4.60;99.90
12089;DHT22;6107;49.078;8.578;2024-01-07T11:07:00;4.50;99.90
12089;DHT22;6107;49.078;8.578;2024-01-07T11:12:00;4.50;99.90
12089;DHT22;6107;49.078;8.578;2024-01-07T11:14:38;4.60;99.90
12089;DHT22;6107;49.078;8.578;2024-01-07T11:17:11;4.60;99.90
12089;DHT22;6107;49.078;8.578;2024-01-07T11:19:49;4.70;99.90
12089;DHT22;6107;49.078;8.578;2024-01-07T11:22:26;4.80;99.90
12089;DHT22;6107;49.078;8.578;2024-01-07T11:24:59;4.80;99.90
12089;DHT22;6107;49.078;8.578;2024-01-07T11:27:28;4.70;99.90
12089;DHT22;6107;49.078;8.578;2024-01-07T11:29:55;4.80;99.90
12089;DHT22;6107;49.078;8.578;2024-01-07T11:32:31;4.80;99.90
12089;DHT22;6107;49.078;8.578;2024-01-07T11:34:58;4.70;99.90
12089;DHT22;6107;49.078;8.578;2024-01-07T11:37:25;4.70;99.90
12089;DHT22;6107;49.078;8.578;2024-01-07T11:39:54;4.70;99.90
12089;DHT22;6107;49.078;8.578;2024-01-07T11:42:20;4.70;99.90
12089;DHT22;6107;49.078;8.578;2024-01-07T11:44:52;4.80;99.90
12089;DHT22;6107;49.078;8.578;2024-01-07T11:47:19;4.80;99.90
12089;DHT22;6107;49.078;8.578;2024-01-07T11:49:45;4.90;99.90
12089;DHT22;6107;49.078;8.578;2024-01-07T11:52:12;4.90;99.90
12089;DHT22;6107;49.078;8.578;2024-01-07T11:54:38;4.80;99.90
12089;DHT22;6107;49.078;8.578;2024-01-07T11:57:08;4.70;99.90
12089;DHT22;6107;49.078;8.578;2024-01-07T11:59:34;4.60;99.90
12089;DHT22;6107;49.078;8.578;2024-01-07T12:02:03;4.60;99.90
12089;DHT22;6107;49.078;8.578;2024-01-07T12:04:33;4.60;99.90
12089;DHT22;6107;49.078;8.578;2024-01-07T12:06:59;5.00;99.90
12089;DHT22;6107;49.078;8.578;2024-01-07T12:09:25;4.80;99.90
12089;DHT22;6107;49.078;8.578;2024-01-07T12:11:51;4.80;99.90
12089;DHT22;6107;49.078;8.578;2024-01-07T12:14:17;4.70;99.90
12089;DHT22;6107;49.078;8.578;2024-01-07T12:16:43;4.60;99.90
12089;DHT22;6107;49.078;8.578;2024-01-07T12:19:09;4.70;99.90
12089;DHT22;6107;49.078;8.578;2024-01-07T12:21:36;4.60;99.90
12089;DHT22;6107;49.078;8.578;2024-01-07T12:24:02;4.50;99.90
12089;DHT22;6107;49.078;8.578;2024-01-07T12:26:29;4.60;99.90
12089;DHT22;6107;49.078;8.578;2024-01-07T12:28:57;4.70;99.90
12089;DHT22;6107;49.078;8.578;2024-01-07T12:31:31;4.70;99.90
12089;DHT22;6107;49.078;8.578;2024-01-07T12:33:57;4.70;99.90
12089;DHT22;6107;49.078;8.578;2024-01-07T12:36:23;4.60;99.90
12089;DHT22;6107;49.078;8.578;2024-01-07T12:38:50;4.50;99.90
12089;DHT22;6107;49.078;8.578;2024-01-07T12:41:17;4.60;99.90
12089;DHT22;6107;49.078;8.578;2024-01-07T12:43:43;4.50;99.90
12089;DHT22;6107;49.078;8.578;2024-01-07T12:46:09;4.40;99.90
12089;DHT22;6107;49.078;8.578;2024-01-07T12:48:34;4.30;99.90
12089;DHT22;6107;49.078;8.578;2024-01-07T12:51:00;4.20;99.90
12089;DHT22;6107;49.078;8.578;2024-01-07T12:53:26;4.20;99.90
12089;DHT22;6107;49.078;8.578;2024-01-07T12:55:53;4.30;99.90
12089;DHT22;6107;49.078;8.578;2024-01-07T12:58:19;4.20;99.90
12089;DHT22;6107;49.078;8.578;2024-01-07T13:00:44;4.20;99.90
12089;DHT22;6107;49.078;8.578;2024-01-07T13:08:16;4.10;99.90
12089;DHT22;6107;49.078;8.578;2024-01-07T13:10:44;4.20;99.90
12089;DHT22;6107;49.078;8.578;2024-01-07T13:13:10;4.30;99.90
12089;DHT22;6107;49.078;8.578;2024-01-07T13:15:38;4.20;99.90
12089;DHT22;6107;49.078;8.578;2024-01-07T13:18:03;4.20;99.90
12089;DHT22;6107;49.078;8.578;2024-01-07T13:20:29;4.20;99.90
12089;DHT22;6107;49.078;8.578;2024-01-07T13:22:54;4.10;99.90
12089;DHT22;6107;49.078;8.578;2024-01-07T13:25:21;4.20;99.90
12089;DHT22;6107;49.078;8.578;2024-01-07T13:30:12;4.00;99.90
12089;DHT22;6107;49.078;8.578;2024-01-07T13:32:38;4.00;99.90
12089;DHT22;6107;49.078;8.578;2024-01-07T13:35:04;3.90;99.90
12089;DHT22;6107;49.078;8.578;2024-01-07T13:37:30;3.90;99.90
12089;DHT22;6107;49.078;8.578;2024-01-07T13:39:59;3.90;99.90
12089;DHT22;6107;49.078;8.578;2024-01-07T13:42:26;3.90;99.90
12089;DHT22;6107;49.078;8.578;2024-01-07T13:44:52;3.80;99.90
12089;DHT22;6107;49.078;8.578;2024-01-07T13:47:17;3.80;99.90
12089;DHT22;6107;49.078;8.578;2024-01-07T13:49:43;3.90;99.90
12089;DHT22;6107;49.078;8.578;2024-01-07T13:52:10;3.90;99.90
12089;DHT22;6107;49.078;8.578;2024-01-07T13:54:36;3.80;99.90
12089;DHT22;6107;49.078;8.578;2024-01-07T13:57:03;3.80;99.90
12089;DHT22;6107;49.078;8.578;2024-01-07T13:59:29;3.90;99.90
12089;DHT22;6107;49.078;8.578;2024-01-07T14:01:55;3.90;99.90
12089;DHT22;6107;49.078;8.578;2024-01-07T14:04:23;3.90;99.90
12089;DHT22;6107;49.078;8.578;2024-01-07T14:06:54;3.90;99.90
12089;DHT22;6107;49.078;8.578;2024-01-07T14:09:20;3.80;99.90
12089;DHT22;6107;49.078;8.578;2024-01-07T14:11:45;3.80;99.90
12089;DHT22;6107;49.078;8.578;2024-01-07T14:14:11;3.70;99.90
12089;DHT22;6107;49.078;8.578;2024-01-07T14:16:36;3.80;99.90
12089;DHT22;6107;49.078;8.578;2024-01-07T14:19:02;3.70;99.90
12089;DHT22;6107;49.078;8.578;2024-01-07T14:21:28;3.70;99.90
12089;DHT22;6107;49.078;8.578;2024-01-07T14:23:55;3.60;99.90
12089;DHT22;6107;49.078;8.578;2024-01-07T14:26:21;3.60;99.90
12089;DHT22;6107;49.078;8.578;2024-01-07T14:28:51;3.50;99.90
12089;DHT22;6107;49.078;8.578;2024-01-07T14:31:17;3.50;99.90
12089;DHT22;6107;49.078;8.578;2024-01-07T14:33:43;3.60;99.90
12089;DHT22;6107;49.078;8.578;2024-01-07T14:36:09;3.60;99.90
12089;DHT22;6107;49.078;8.578;2024-01-07T14:38:46;3.50;99.90
12089;DHT22;6107;49.078;8.578;2024-01-07T14:41:15;3.50;99.90
12089;DHT22;6107;49.078;8.578;2024-01-07T14:43:41;3.40;99.90
12089;DHT22;6107;49.078;8.578;2024-01-07T14:46:07;3.40;99.90
12089;DHT22;6107;49.078;8.578;2024-01-07T14:48:34;3.30;99.90
12089;DHT22;6107;49.078;8.578;2024-01-07T15:03:14;3.50;99.90
12089;DHT22;6107;49.078;8.578;2024-01-07T15:05:39;3.30;99.90
12089;DHT22;6107;49.078;8.578;2024-01-07T15:08:06;3.30;99.90
12089;DHT22;6107;49.078;8.578;2024-01-07T15:10:32;3.20;99.90
12089;DHT22;6107;49.078;8.578;2024-01-07T15:12:58;3.30;99.90
12089;DHT22;6107;49.078;8.578;2024-01-07T15:15:24;3.30;99.90
12089;DHT22;6107;49.078;8.578;2024-01-07T15:17:55;3.10;99.90
12089;DHT22;6107;49.078;8.578;2024-01-07T15:20:21;3.10;99.90
12089;DHT22;6107;49.078;8.578;2024-01-07T15:22:46;3.10;99.90
12089;DHT22;6107;49.078;8.578;2024-01-07T15:25:14;3.00;99.90
12089;DHT22;6107;49.078;8.578;2024-01-07T15:27:40;3.00;99.90
12089;DHT22;6107;49.078;8.578;2024-01-07T15:30:06;3.00;99.90
12089;DHT22;6107;49.078;8.578;2024-01-07T15:32:33;3.00;99.90
12089;DHT22;6107;49.078;8.578;2024-01-07T15:34:59;3.00;99.90
12089;DHT22;6107;49.078;8.578;2024-01-07T15:37:25;3.10;99.90
12089;DHT22;6107;49.078;8.578;2024-01-07T15:39:50;3.00;99.90
12089;DHT22;6107;49.078;8.578;2024-01-07T15:42:17;2.90;99.90
12089;DHT22;6107;49.078;8.578;2024-01-07T15:44:43;3.00;99.90
12089;DHT22;6107;49.078;8.578;2024-01-07T15:47:09;2.90;99.90
12089;DHT22;6107;49.078;8.578;2024-01-07T15:49:35;2.90;99.90
12089;DHT22;6107;49.078;8.578;2024-01-07T15:52:01;2.80;99.90
12089;DHT22;6107;49.078;8.578;2024-01-07T15:54:27;2.80;99.90
12089;DHT22;6107;49.078;8.578;2024-01-07T15:56:52;3.80;99.90
12089;DHT22;6107;49.078;8.578;2024-01-07T15:59:20;3.30;99.90
12089;DHT22;6107;49.078;8.578;2024-01-07T16:01:46;2.90;99.90
12089;DHT22;6107;49.078;8.578;2024-01-07T16:04:12;2.90;99.90
12089;DHT22;6107;49.078;8.578;2024-01-07T16:06:40;3.00;99.90
12089;DHT22;6107;49.078;8.578;2024-01-07T16:09:07;2.80;99.90
12089;DHT22;6107;49.078;8.578;2024-01-07T16:11:33;2.80;99.90
12089;DHT22;6107;49.078;8.578;2024-01-07T16:13:58;2.70;99.90
12089;DHT22;6107;49.078;8.578;2024-01-07T16:16:24;2.70;99.90
12089;DHT22;6107;49.078;8.578;2024-01-07T16:18:49;2.90;99.90